Accueil
METAR-TAF:

METAR-TAF

Aéroports :

Aérodrome de Bíldudalur

Bíldudalur, Islande

latitude: 65-38-30N, longitude: 23-32-45W, altitude: 8 m

Observation

Le bulletin a été fait il y a 16 heures et 29 minutes, à 16:00 UTC
Vent 4 kt de est/sud-est
Température 1°C
Humidité 64%
Pression 1022 hPa
Visibilité 10 km ou plus
Nuages épars à une hauteur de 4500 ft

METAR: BIBD 081600Z 11004KT 9999 SCT045 01/M05 Q1022

Heure: 08:29 (08:29 UTC)

Prévision

Le bulletin a été fait il y a 19 heures et 23 minutes, à 13:06 UTC
Prévision valable du 08 à 14 UTC au 08 à 23 UTC
Vent 2 kt de sud-ouest
Visibilité 10 km ou plus
Nuages épars à une hauteur de 4500 ft

TAF: BIBD 081306Z 0814/0823 22002KT 9999 SCT045

Observations et prévisions météorologiques de plus de 4000 aéroports (messages METAR et TAF).

Les stations disponibles sont représentées par des disques jaunes et rouges sur la carte.

Passer la souris dessus pour voir le nom de la station.

Cliquer dessus pour voir les observations et prévisions météorologiques.

Pour changer de carte: cliquez sur les boutons verts avec une croix noire pour zoomer, sur le bouton vert avec un tiret pour effectuer un zoom arrière, ou sur les flèches vertes pour les cartes adjacentes.


METAR-TAF: